createdAt,value
2018-04-14T00:02:13.929Z,12.51
2018-04-14T00:04:43.077Z,12.39
2018-04-14T00:07:11.466Z,12.20
2018-04-14T00:09:39.862Z,12.04
2018-04-14T00:12:09.017Z,11.90
2018-04-14T00:14:38.158Z,11.77
2018-04-14T00:17:06.536Z,11.70
2018-04-14T00:19:34.945Z,11.57
2018-04-14T00:22:03.357Z,11.52
2018-04-14T00:24:32.541Z,11.50
2018-04-14T00:27:00.972Z,11.39
2018-04-14T00:29:29.452Z,11.37
2018-04-14T00:31:57.835Z,11.38
2018-04-14T00:34:26.223Z,11.32
2018-04-14T00:36:54.648Z,11.23
2018-04-14T00:39:23.021Z,11.16
2018-04-14T00:41:51.473Z,11.12
2018-04-14T00:44:19.905Z,11.06
2018-04-14T00:46:48.347Z,11.01
2018-04-14T00:49:16.734Z,11.01
2018-04-14T00:51:45.122Z,10.95
2018-04-14T00:54:13.521Z,11.04
2018-04-14T00:56:41.954Z,10.96
2018-04-14T00:59:10.331Z,10.86
2018-04-14T01:01:39.528Z,10.81
2018-04-14T01:04:07.918Z,10.83
2018-04-14T01:06:37.074Z,10.82
2018-04-14T01:09:06.225Z,10.97
2018-04-14T01:11:35.446Z,10.92
2018-04-14T01:14:03.885Z,10.98
2018-04-14T01:16:32.273Z,10.92
2018-04-14T01:19:00.670Z,10.86
2018-04-14T01:21:29.858Z,10.83
2018-04-14T01:23:58.270Z,10.70
2018-04-14T01:26:26.693Z,10.59
2018-04-14T01:28:55.070Z,10.52
2018-04-14T01:31:23.489Z,10.42
2018-04-14T01:33:53.514Z,10.35
2018-04-14T01:36:21.939Z,10.24
2018-04-14T01:38:50.347Z,10.19
2018-04-14T01:41:18.730Z,10.13
2018-04-14T01:43:47.132Z,10.08
2018-04-14T01:46:15.530Z,10.06
2018-04-14T01:48:43.937Z,9.95
2018-04-14T01:51:12.319Z,9.90
2018-04-14T01:53:41.482Z,9.86
2018-04-14T01:56:09.866Z,9.80
2018-04-14T01:58:38.316Z,9.77
2018-04-14T02:01:06.693Z,9.73
2018-04-14T02:03:35.071Z,9.72
2018-04-14T02:06:03.451Z,9.66
2018-04-14T02:08:31.844Z,9.55
2018-04-14T02:11:00.217Z,9.52
2018-04-14T02:13:28.709Z,9.50
2018-04-14T02:15:57.127Z,9.43
2018-04-14T02:18:25.577Z,9.47
2018-04-14T02:20:53.973Z,9.44
2018-04-14T02:23:22.339Z,9.50
2018-04-14T02:25:50.724Z,9.46
2018-04-14T02:28:19.133Z,9.40
2018-04-14T02:30:47.542Z,9.43
2018-04-14T02:33:15.946Z,9.42
2018-04-14T02:35:45.086Z,9.46
2018-04-14T02:38:13.482Z,9.57
2018-04-14T02:40:41.934Z,9.64
2018-04-14T02:43:10.343Z,9.69
2018-04-14T02:45:38.753Z,9.60
2018-04-14T02:48:07.174Z,9.50
2018-04-14T02:50:35.629Z,9.54
2018-04-14T02:53:04.786Z,9.60
2018-04-14T02:55:33.172Z,9.68
2018-04-14T02:58:01.565Z,9.97
2018-04-14T03:00:30.031Z,10.14
2018-04-14T03:02:58.417Z,10.23
2018-04-14T03:05:26.815Z,10.19
2018-04-14T03:07:55.322Z,10.08
2018-04-14T03:10:23.764Z,10.11
2018-04-14T03:12:52.124Z,10.10
2018-04-14T03:15:20.507Z,9.97
2018-04-14T03:17:49.709Z,9.83
2018-04-14T03:20:18.089Z,9.65
2018-04-14T03:22:46.504Z,9.53
2018-04-14T03:25:14.894Z,9.40
2018-04-14T03:27:43.285Z,9.26
2018-04-14T03:30:11.671Z,9.34
2018-04-14T03:32:40.047Z,9.30
2018-04-14T03:35:08.506Z,9.19
2018-04-14T03:37:36.905Z,9.10
2018-04-14T03:40:05.278Z,8.99
2018-04-14T03:42:33.709Z,8.79
2018-04-14T03:45:02.106Z,8.67
2018-04-14T03:47:31.266Z,8.53
2018-04-14T03:49:59.719Z,8.41
2018-04-14T03:52:28.104Z,8.43
2018-04-14T03:54:56.501Z,8.42
2018-04-14T03:57:24.896Z,8.39
2018-04-14T03:59:53.282Z,8.33
2018-04-14T04:02:21.663Z,8.27
2018-04-14T04:04:50.837Z,8.26
2018-04-14T04:07:19.212Z,8.35
2018-04-14T04:09:47.630Z,8.54
2018-04-14T04:12:16.015Z,8.57
2018-04-14T04:14:44.392Z,8.57
2018-04-14T04:17:12.779Z,8.89
2018-04-14T04:19:58.836Z,9.25
2018-04-14T04:22:44.830Z,9.56
2018-04-14T04:28:20.788Z,9.58
2018-04-14T04:30:49.170Z,9.55
2018-04-14T04:33:17.569Z,9.74
2018-04-14T04:35:45.948Z,9.91
2018-04-14T04:38:14.337Z,9.76
2018-04-14T04:40:43.634Z,9.71
2018-04-14T04:43:12.020Z,9.74
2018-04-14T04:45:40.489Z,9.67
2018-04-14T04:48:08.895Z,9.68
2018-04-14T04:50:37.301Z,9.54
2018-04-14T04:53:05.701Z,9.57
2018-04-14T04:55:34.923Z,9.63
2018-04-14T04:58:03.313Z,9.66
2018-04-14T05:00:31.726Z,9.51
2018-04-14T05:03:00.933Z,9.33
2018-04-14T05:05:29.314Z,9.36
2018-04-14T05:07:57.691Z,9.48
2018-04-14T05:10:26.068Z,9.29
2018-04-14T05:12:54.457Z,9.15
2018-04-14T05:15:22.857Z,9.14
2018-04-14T05:17:51.247Z,9.21
2018-04-14T05:20:20.388Z,9.28
2018-04-14T05:22:48.777Z,9.41
2018-04-14T05:25:17.145Z,9.51
2018-04-14T05:27:46.285Z,9.59
2018-04-14T05:30:14.677Z,9.58
2018-04-14T05:32:43.066Z,9.47
2018-04-14T05:35:11.498Z,9.50
2018-04-14T05:37:39.877Z,9.64
2018-04-14T05:40:09.051Z,9.77
2018-04-14T05:42:37.428Z,9.94
2018-04-14T05:45:05.810Z,10.15
2018-04-14T05:47:34.208Z,10.31
2018-04-14T05:50:02.591Z,10.74
2018-04-14T05:52:31.003Z,11.01
2018-04-14T05:55:00.150Z,11.45
2018-04-14T05:57:28.545Z,11.71
2018-04-14T05:59:56.982Z,11.74
2018-04-14T06:02:25.422Z,11.66
2018-04-14T06:04:53.866Z,11.47
2018-04-14T06:07:22.315Z,11.74
2018-04-14T06:09:51.458Z,11.70
2018-04-14T06:12:19.858Z,12.22
2018-04-14T06:14:48.232Z,12.48
2018-04-14T06:17:16.618Z,13.10
2018-04-14T06:19:45.090Z,13.16
2018-04-14T06:22:13.544Z,12.91
2018-04-14T06:24:41.873Z,13.21
2018-04-14T06:27:10.263Z,13.55
2018-04-14T06:29:38.664Z,13.96
2018-04-14T06:32:07.113Z,14.85
2018-04-14T06:34:35.635Z,14.97
2018-04-14T06:37:04.021Z,14.53
2018-04-14T06:39:32.430Z,15.06
2018-04-14T06:42:01.578Z,15.04
2018-04-14T06:44:29.988Z,14.79
2018-04-14T06:46:58.414Z,15.20
2018-04-14T06:49:26.817Z,16.05
2018-04-14T06:51:55.357Z,17.48
2018-04-14T06:54:24.606Z,17.57
2018-04-14T06:56:53.067Z,17.80
2018-04-14T06:59:21.457Z,17.33
2018-04-14T07:01:49.846Z,19.22
2018-04-14T07:04:18.245Z,18.94
2018-04-14T07:06:46.637Z,18.89
2018-04-14T07:09:15.036Z,18.42
2018-04-14T07:11:43.449Z,17.98
2018-04-14T07:14:12.611Z,17.93
2018-04-14T07:16:41.021Z,19.36
2018-04-14T07:19:09.446Z,20.30
2018-04-14T07:21:37.866Z,20.04
2018-04-14T07:24:06.248Z,19.88
2018-04-14T07:26:34.654Z,19.87
2018-04-14T07:29:03.904Z,19.59
2018-04-14T07:31:32.346Z,19.51
2018-04-14T07:34:01.549Z,19.60
2018-04-14T07:36:30.741Z,18.87
2018-04-14T07:38:59.178Z,18.06
2018-04-14T07:41:27.601Z,18.68
2018-04-14T07:43:55.999Z,19.54
2018-04-14T07:46:25.170Z,20.04
2018-04-14T07:48:53.594Z,19.20
2018-04-14T07:51:22.763Z,20.57
2018-04-14T07:53:51.160Z,20.74
2018-04-14T07:56:19.579Z,19.29
2018-04-14T07:58:47.984Z,21.26
2018-04-14T08:01:16.665Z,21.71
2018-04-14T08:03:45.090Z,21.53
2018-04-14T08:06:14.291Z,21.63
2018-04-14T08:08:42.832Z,21.76
2018-04-14T08:11:11.219Z,19.72
2018-04-14T08:13:39.613Z,19.86
2018-04-14T08:16:08.048Z,21.98
2018-04-14T08:18:37.339Z,20.83
2018-04-14T08:21:05.823Z,22.28
2018-04-14T08:23:34.252Z,22.86
2018-04-14T08:26:02.633Z,22.53
2018-04-14T08:28:31.026Z,22.73
2018-04-14T08:30:59.520Z,20.20
2018-04-14T08:33:28.087Z,21.61
2018-04-14T08:35:56.513Z,19.30
2018-04-14T08:38:24.911Z,21.36
2018-04-14T08:40:53.365Z,22.14
2018-04-14T08:43:21.776Z,22.08
2018-04-14T08:45:50.177Z,22.19
2018-04-14T08:48:18.572Z,21.85
2018-04-14T08:50:47.746Z,23.31
2018-04-14T08:53:16.192Z,22.57
2018-04-14T08:55:44.577Z,23.67
2018-04-14T08:58:12.998Z,23.81
2018-04-14T09:00:41.409Z,23.83
2018-04-14T09:03:10.591Z,22.88
2018-04-14T09:05:38.990Z,22.74
2018-04-14T09:08:08.276Z,20.16
2018-04-14T09:10:36.701Z,18.87
2018-04-14T09:13:05.083Z,20.41
2018-04-14T09:15:33.546Z,21.54
2018-04-14T09:18:02.702Z,22.07
2018-04-14T09:20:31.149Z,22.56
2018-04-14T09:22:59.535Z,22.06
2018-04-14T09:25:28.037Z,22.87
2018-04-14T09:27:56.431Z,21.29
2018-04-14T09:30:24.845Z,23.13
2018-04-14T09:32:53.253Z,23.46
2018-04-14T09:35:22.428Z,23.93
2018-04-14T09:37:50.878Z,23.55
2018-04-14T09:40:19.293Z,21.36
2018-04-14T09:42:47.718Z,22.45
2018-04-14T09:45:16.098Z,20.94
2018-04-14T09:47:44.511Z,22.34
2018-04-14T09:50:12.938Z,22.09
2018-04-14T09:52:41.443Z,21.32
2018-04-14T09:55:10.649Z,22.53
2018-04-14T09:57:39.865Z,22.67
2018-04-14T10:00:08.302Z,23.51
2018-04-14T10:02:42.237Z,21.85
2018-04-14T10:05:11.519Z,22.26
2018-04-14T10:07:39.917Z,21.97
2018-04-14T10:10:09.088Z,20.74
2018-04-14T10:12:37.478Z,20.54
2018-04-14T10:15:05.914Z,20.55
2018-04-14T10:17:34.319Z,21.02
2018-04-14T10:20:02.691Z,21.13
2018-04-14T10:22:31.102Z,22.51
2018-04-14T10:24:59.545Z,22.93
2018-04-14T10:27:27.969Z,21.74
2018-04-14T10:29:56.385Z,22.26
2018-04-14T10:32:24.796Z,22.69
2018-04-14T10:34:53.169Z,22.06
2018-04-14T10:37:21.696Z,23.52
2018-04-14T10:39:50.138Z,23.59
2018-04-14T10:42:18.534Z,24.34
2018-04-14T10:44:46.913Z,24.30
2018-04-14T10:47:15.317Z,23.40
2018-04-14T10:49:43.728Z,24.93
2018-04-14T10:52:12.905Z,26.06
2018-04-14T10:54:41.322Z,25.84
2018-04-14T10:57:09.866Z,25.24
2018-04-14T10:59:38.268Z,23.72
2018-04-14T11:02:06.671Z,24.74
2018-04-14T11:04:35.073Z,25.64
2018-04-14T11:07:03.457Z,24.89
2018-04-14T11:09:32.663Z,24.90
2018-04-14T11:12:02.034Z,25.14
2018-04-14T11:14:31.261Z,25.14
2018-04-14T11:16:59.677Z,24.73
2018-04-14T11:19:28.101Z,23.48
2018-04-14T11:21:56.517Z,24.93
2018-04-14T11:24:24.899Z,25.13
2018-04-14T11:26:53.317Z,25.02
2018-04-14T11:29:21.707Z,25.49
2018-04-14T11:31:50.112Z,25.82
2018-04-14T11:34:18.522Z,25.59
2018-04-14T11:36:46.951Z,25.35
2018-04-14T11:39:15.342Z,23.71
2018-04-14T11:41:43.773Z,25.09
2018-04-14T11:44:12.159Z,23.09
2018-04-14T11:46:40.569Z,22.46
2018-04-14T11:49:09.755Z,22.87
2018-04-14T11:51:38.202Z,23.48
2018-04-14T11:54:06.634Z,23.77
2018-04-14T11:56:35.808Z,22.90
2018-04-14T11:59:04.208Z,23.62
2018-04-14T12:01:32.629Z,23.64
2018-04-14T12:04:01.015Z,23.15
2018-04-14T12:06:29.454Z,22.98
2018-04-14T12:08:57.838Z,23.50
2018-04-14T12:11:27.774Z,23.69
2018-04-14T12:13:56.925Z,22.47
2018-04-14T12:16:25.335Z,23.25
2018-04-14T12:18:53.729Z,23.33
2018-04-14T12:21:22.106Z,23.51
2018-04-14T12:23:50.501Z,24.06
2018-04-14T12:26:19.658Z,24.05
2018-04-14T12:28:48.103Z,23.34
2018-04-14T12:31:17.301Z,24.30
2018-04-14T12:33:46.456Z,23.86
2018-04-14T12:36:14.896Z,22.66
2018-04-14T12:38:43.290Z,23.16
2018-04-14T12:41:11.698Z,23.88
2018-04-14T12:43:40.078Z,24.19
2018-04-14T12:46:08.517Z,24.72
2018-04-14T12:48:37.670Z,24.49
2018-04-14T12:51:06.066Z,23.88
2018-04-14T12:53:34.467Z,22.79
2018-04-14T12:56:02.869Z,24.46
2018-04-14T12:58:32.024Z,23.52
2018-04-14T13:01:00.417Z,24.52
2018-04-14T13:03:28.838Z,23.81
2018-04-14T13:05:58.056Z,23.87
2018-04-14T13:08:26.462Z,24.30
2018-04-14T13:10:54.862Z,25.20
2018-04-14T13:13:23.418Z,25.67
2018-04-14T13:15:51.813Z,25.82
2018-04-14T13:18:20.213Z,25.41
2018-04-14T13:20:48.611Z,24.63
2018-04-14T13:23:17.006Z,24.01
2018-04-14T13:25:45.397Z,24.17
2018-04-14T13:28:14.567Z,25.21
2018-04-14T13:30:42.954Z,25.57
2018-04-14T13:33:11.399Z,25.56
2018-04-14T13:35:39.843Z,25.04
2018-04-14T13:38:08.238Z,24.28
2018-04-14T13:40:37.413Z,23.80
2018-04-14T13:43:05.933Z,24.59
2018-04-14T13:45:35.178Z,24.09
2018-04-14T13:48:03.625Z,23.79
2018-04-14T13:50:32.797Z,24.09
2018-04-14T13:53:01.211Z,23.85
2018-04-14T13:55:30.389Z,25.19
2018-04-14T13:57:59.572Z,25.70
2018-04-14T14:00:27.978Z,24.89
2018-04-14T14:02:57.117Z,23.01
2018-04-14T14:05:25.512Z,23.25
2018-04-14T14:07:53.945Z,22.65
2018-04-14T14:10:23.146Z,23.20
2018-04-14T14:12:52.322Z,22.85
2018-04-14T14:15:20.733Z,22.44
2018-04-14T14:17:49.285Z,21.92
2018-04-14T14:20:17.674Z,22.58
2018-04-14T14:22:46.074Z,23.01
2018-04-14T14:25:14.500Z,22.97
2018-04-14T14:27:42.942Z,22.91
2018-04-14T14:30:11.544Z,23.36
2018-04-14T14:32:40.729Z,22.73
2018-04-14T14:35:09.109Z,22.93
2018-04-14T14:37:37.506Z,22.47
2018-04-14T14:40:05.904Z,22.31
2018-04-14T14:42:35.326Z,22.89
2018-04-14T14:45:03.666Z,22.29
2018-04-14T14:47:38.422Z,21.85
2018-04-14T14:50:13.153Z,22.06
2018-04-14T14:52:42.364Z,21.61
2018-04-14T14:55:11.550Z,21.71
2018-04-14T14:57:40.008Z,22.14
2018-04-14T15:00:08.409Z,21.71
2018-04-14T15:05:03.176Z,21.50
2018-04-14T15:07:31.536Z,21.61
2018-04-14T15:10:00.730Z,21.52
2018-04-14T15:12:29.945Z,22.77
2018-04-14T15:14:58.437Z,23.31
2018-04-14T15:17:26.848Z,23.79
2018-04-14T15:19:55.224Z,24.94
2018-04-14T15:22:23.714Z,23.50
2018-04-14T15:24:52.107Z,24.24
2018-04-14T15:27:20.518Z,24.39
2018-04-14T15:29:48.903Z,24.12
2018-04-14T15:32:18.271Z,22.75
2018-04-14T15:34:46.675Z,22.11
2018-04-14T15:37:15.067Z,22.67
2018-04-14T15:39:44.348Z,23.11
2018-04-14T15:42:12.749Z,22.43
2018-04-14T15:44:41.334Z,22.65
2018-04-14T15:47:09.736Z,22.43
2018-04-14T15:49:38.955Z,22.97
2018-04-14T15:52:08.125Z,23.14
2018-04-14T15:54:36.526Z,22.30
2018-04-14T15:57:05.665Z,22.67
2018-04-14T15:59:34.126Z,22.38
2018-04-14T16:02:02.527Z,22.84
2018-04-14T16:04:30.913Z,22.51
2018-04-14T16:06:59.319Z,21.63
2018-04-14T16:09:27.708Z,21.54
2018-04-14T16:11:56.137Z,21.45
2018-04-14T16:14:25.294Z,20.85
2018-04-14T16:16:53.734Z,20.85
2018-04-14T16:19:22.186Z,20.60
2018-04-14T16:21:50.604Z,20.65
2018-04-14T16:24:18.998Z,20.30
2018-04-14T16:26:47.376Z,20.34
2018-04-14T16:29:15.857Z,20.12
2018-04-14T16:31:44.453Z,19.86
2018-04-14T16:34:12.834Z,19.91
2018-04-14T16:36:41.254Z,19.80
2018-04-14T16:39:09.667Z,19.82
2018-04-14T16:41:38.857Z,19.50
2018-04-14T16:44:07.241Z,19.62
2018-04-14T16:46:35.875Z,19.65
2018-04-14T16:49:04.256Z,19.62
2018-04-14T16:51:32.621Z,19.25
2018-04-14T16:54:01.786Z,19.11
2018-04-14T16:56:30.179Z,19.05
2018-04-14T16:58:58.553Z,19.14
2018-04-14T17:01:26.924Z,19.24
2018-04-14T17:03:55.323Z,19.16
2018-04-14T17:06:23.839Z,19.04
2018-04-14T17:08:52.994Z,18.90
2018-04-14T17:11:21.502Z,18.82
2018-04-14T17:13:51.398Z,18.87
2018-04-14T17:16:19.774Z,18.69
2018-04-14T17:18:48.227Z,18.68
2018-04-14T17:21:16.567Z,18.63
2018-04-14T17:23:44.974Z,18.61
2018-04-14T17:26:14.128Z,18.50
2018-04-14T17:28:42.491Z,18.40
2018-04-14T17:31:10.910Z,18.27
2018-04-14T17:33:39.562Z,18.13
2018-04-14T17:36:07.981Z,17.96
2018-04-14T17:38:36.370Z,18.02
2018-04-14T17:41:04.789Z,17.92
2018-04-14T17:43:33.945Z,17.97
2018-04-14T17:46:02.390Z,17.86
2018-04-14T17:48:30.774Z,17.88
2018-04-14T17:50:59.233Z,17.73
2018-04-14T17:53:28.438Z,17.56
2018-04-14T17:55:57.593Z,17.46
2018-04-14T17:58:25.974Z,17.35
2018-04-14T18:00:54.408Z,17.31
2018-04-14T18:03:23.555Z,17.21
2018-04-14T18:05:51.969Z,17.08
2018-04-14T18:08:20.378Z,16.95
2018-04-14T18:10:49.561Z,16.86
2018-04-14T18:13:18.801Z,16.72
2018-04-14T18:15:47.251Z,16.64
2018-04-14T18:18:16.422Z,16.67
2018-04-14T18:20:44.829Z,16.62
2018-04-14T18:23:13.259Z,16.46
2018-04-14T18:25:41.669Z,16.44
2018-04-14T18:28:10.070Z,16.36
2018-04-14T18:30:38.463Z,16.25
2018-04-14T18:33:06.907Z,16.24
2018-04-14T18:35:35.311Z,16.41
2018-04-14T18:38:03.726Z,16.34
2018-04-14T18:40:32.929Z,16.29
2018-04-14T18:43:02.095Z,16.20
2018-04-14T18:45:30.507Z,16.08
2018-04-14T18:47:59.687Z,16.07
2018-04-14T18:50:28.132Z,15.93
2018-04-14T18:52:56.522Z,15.86
2018-04-14T18:55:24.934Z,15.79
2018-04-14T18:57:53.333Z,15.76
2018-04-14T19:00:21.729Z,15.68
2018-04-14T19:02:50.916Z,15.63
2018-04-14T19:05:19.314Z,15.57
2018-04-14T19:07:48.453Z,15.49
2018-04-14T19:10:16.867Z,15.44
2018-04-14T19:12:45.273Z,15.39
2018-04-14T19:15:13.678Z,15.30
2018-04-14T19:17:42.839Z,15.26
2018-04-14T19:20:11.237Z,15.18
2018-04-14T19:22:39.633Z,15.15
2018-04-14T19:25:08.772Z,15.11
2018-04-14T19:27:38.105Z,15.12
2018-04-14T19:30:06.512Z,15.06
2018-04-14T19:32:35.689Z,15.08
2018-04-14T19:35:04.096Z,15.04
2018-04-14T19:37:33.999Z,15.09
2018-04-14T19:40:02.398Z,15.06
2018-04-14T19:42:32.298Z,15.00
2018-04-14T19:45:00.799Z,14.91
2018-04-14T19:47:30.011Z,14.81
2018-04-14T19:49:59.408Z,14.75
2018-04-14T19:52:29.121Z,14.56
2018-04-14T19:54:57.517Z,14.39
2018-04-14T19:57:27.471Z,14.23
2018-04-14T19:59:55.891Z,14.07
2018-04-14T20:02:24.283Z,13.94
2018-04-14T20:04:52.797Z,13.82
2018-04-14T20:07:21.199Z,13.72
2018-04-14T20:09:49.794Z,13.60
2018-04-14T20:12:18.264Z,13.50
2018-04-14T20:14:47.426Z,13.41
2018-04-14T20:17:16.630Z,13.39
2018-04-14T20:19:45.072Z,13.34
2018-04-14T20:22:13.422Z,13.28
2018-04-14T20:24:42.653Z,13.22
2018-04-14T20:27:11.107Z,13.18
2018-04-14T20:29:40.288Z,13.11
2018-04-14T20:32:08.728Z,13.05
2018-04-14T20:34:37.149Z,13.03
2018-04-14T20:37:06.627Z,13.01
2018-04-14T20:39:34.995Z,12.94
2018-04-14T20:42:04.122Z,12.94
2018-04-14T20:44:32.526Z,12.90
2018-04-14T20:47:00.967Z,12.88
2018-04-14T20:49:29.364Z,12.88
2018-04-14T20:51:57.758Z,12.84
2018-04-14T20:54:26.204Z,12.86
2018-04-14T20:56:54.627Z,12.88
2018-04-14T20:59:23.024Z,12.94
2018-04-14T21:01:52.218Z,13.03
2018-04-14T21:04:21.394Z,13.10
2018-04-14T21:06:49.830Z,13.17
2018-04-14T21:09:18.986Z,13.27
2018-04-14T21:11:48.289Z,13.35
2018-04-14T21:14:16.728Z,13.41
2018-04-14T21:16:45.981Z,13.48
2018-04-14T21:19:14.390Z,13.56
2018-04-14T21:21:42.835Z,13.67
2018-04-14T21:24:11.217Z,13.79
2018-04-14T21:26:39.618Z,13.90
2018-04-14T21:29:08.046Z,13.95
2018-04-14T21:31:37.230Z,13.97
2018-04-14T21:34:06.394Z,14.00
2018-04-14T21:36:34.801Z,13.99
2018-04-14T21:39:03.241Z,14.00
2018-04-14T21:41:31.708Z,14.01
2018-04-14T21:44:00.871Z,14.01
2018-04-14T21:46:29.306Z,14.04
2018-04-14T21:48:57.707Z,14.05
2018-04-14T21:51:26.111Z,14.06
2018-04-14T21:53:54.586Z,14.04
2018-04-14T21:56:23.790Z,14.05
2018-04-14T21:58:52.379Z,14.04
2018-04-14T22:01:20.836Z,14.04
2018-04-14T22:03:49.273Z,14.04
2018-04-14T22:06:17.674Z,14.02
2018-04-14T22:08:46.873Z,14.02
2018-04-14T22:11:16.013Z,14.01
2018-04-14T22:13:44.409Z,14.01
2018-04-14T22:16:13.013Z,14.00
2018-04-14T22:18:41.424Z,13.99
2018-04-14T22:21:10.589Z,14.00
2018-04-14T22:23:39.023Z,13.99
2018-04-14T22:26:08.185Z,13.99
2018-04-14T22:28:36.587Z,14.00
2018-04-14T22:31:04.988Z,14.20
2018-04-14T22:33:34.331Z,14.26
2018-04-14T22:36:02.710Z,14.40
2018-04-14T22:38:31.187Z,14.47
2018-04-14T22:40:59.642Z,14.64
2018-04-14T22:43:28.816Z,14.84
2018-04-14T22:45:57.220Z,15.03
2018-04-14T22:48:26.367Z,15.11
2018-04-14T22:50:54.761Z,15.30
2018-04-14T22:53:23.180Z,15.10
2018-04-14T22:55:52.357Z,15.22
2018-04-14T22:58:20.760Z,15.22
2018-04-14T23:00:50.670Z,15.36
2018-04-14T23:03:19.089Z,15.37
2018-04-14T23:05:48.320Z,15.48
2018-04-14T23:08:16.741Z,15.49
2018-04-14T23:10:45.137Z,15.49
2018-04-14T23:13:14.292Z,15.44
2018-04-14T23:15:42.699Z,15.38
2018-04-14T23:18:11.861Z,15.48
2018-04-14T23:20:40.241Z,15.34
2018-04-14T23:23:08.631Z,15.07
2018-04-14T23:25:37.012Z,15.03
2018-04-14T23:28:05.417Z,14.98
2018-04-14T23:30:34.609Z,14.81
2018-04-14T23:33:02.996Z,14.63
2018-04-14T23:35:31.395Z,14.45
2018-04-14T23:38:00.006Z,14.31
2018-04-14T23:40:28.399Z,14.27
2018-04-14T23:42:57.537Z,14.44
2018-04-14T23:45:25.942Z,14.38
2018-04-14T23:47:55.085Z,13.95
2018-04-14T23:50:24.270Z,13.72
2018-04-14T23:52:52.663Z,13.62
2018-04-14T23:55:21.814Z,13.57
2018-04-14T23:57:50.208Z,13.68
